Time;durP1;ratioP1;P1;durP2;ratioP2;P2;SDS_P1;SDS_P2;PMS_P1;PMS_P2;Temp;Humidity;BMP_temperature;BMP_pressure;BME280_temperature;BME280_humidity;BME280_pressure;Samples;Min_cycle;Max_cycle;Signal;HPM_P1;HPM_P2
2023/02/15 08:48:35;;;;;;;19.03;10.13;;;9.50;99.90;;;;;;4956059;29;20228;-68
2023/02/15 08:51:07;;;;;;;23.20;10.07;;;9.90;99.90;;;;;;4958849;28;20235;-68
2023/02/15 08:53:34;;;;;;;24.60;9.83;;;10.20;99.90;;;;;;4958540;28;20244;-69
2023/02/15 08:56:01;;;;;;;19.73;10.33;;;10.30;99.90;;;;;;4955190;28;20662;-68
2023/02/15 08:58:28;;;;;;;18.67;8.93;;;10.60;99.90;;;;;;4958004;28;20208;-69
2023/02/15 09:00:55;;;;;;;21.67;10.10;;;10.70;99.90;;;;;;4957969;28;20220;-68
2023/02/15 09:03:22;;;;;;;20.03;9.40;;;10.90;99.90;;;;;;4953591;28;20204;-68
2023/02/15 09:05:51;;;;;;;18.77;9.30;;;11.00;99.90;;;;;;4957151;28;20208;-69
2023/02/15 09:08:17;;;;;;;19.17;8.60;;;11.20;99.90;;;;;;4958394;28;20303;-68
2023/02/15 09:10:44;;;;;;;20.67;7.80;;;11.30;99.90;;;;;;4958408;28;20261;-68
2023/02/15 09:13:11;;;;;;;19.10;8.63;;;10.60;99.90;;;;;;4957665;28;20212;-70
2023/02/15 09:15:38;;;;;;;19.07;8.47;;;10.60;99.90;;;;;;4958215;28;20250;-75
2023/02/15 09:18:05;;;;;;;18.30;7.87;;;10.80;99.90;;;;;;4958017;28;20680;-75
2023/02/15 09:20:35;;;;;;;14.67;7.73;;;10.70;99.90;;;;;;4958262;28;20670;-69
2023/02/15 09:23:03;;;;;;;21.63;8.23;;;10.70;99.90;;;;;;4957993;28;20662;-69
2023/02/15 09:25:30;;;;;;;16.07;6.87;;;10.80;99.90;;;;;;4957998;28;20232;-72
2023/02/15 09:27:57;;;;;;;19.60;8.60;;;10.90;99.90;;;;;;4957823;28;20208;-69
2023/02/15 09:30:24;;;;;;;17.60;7.67;;;11.00;99.90;;;;;;4957602;28;20725;-70
2023/02/15 09:32:51;;;;;;;15.97;7.17;;;11.00;99.90;;;;;;4957966;28;20294;-70
2023/02/15 09:35:18;;;;;;;15.80;6.90;;;10.90;99.90;;;;;;4957828;28;20315;-74
2023/02/15 09:37:44;;;;;;;15.27;6.97;;;10.90;99.90;;;;;;4957879;28;20680;-74
2023/02/15 09:40:17;;;;;;;16.73;7.40;;;11.10;99.90;;;;;;4957670;28;20680;-75
2023/02/15 09:43:22;;;;;;;14.57;6.43;;;11.20;99.90;;;;;;4957754;28;20208;-74
2023/02/15 09:46:09;;;;;;;15.17;6.90;;;11.40;99.90;;;;;;4934136;28;20674;-75
2023/02/15 09:48:44;;;;;;;18.37;6.93;;;11.30;99.90;;;;;;4957649;28;20218;-75
2023/02/15 09:51:53;;;;;;;12.93;6.20;;;11.50;99.90;;;;;;4957102;28;20232;-69
2023/02/15 09:54:36;;;;;;;15.03;5.73;;;11.50;99.90;;;;;;4952110;28;20247;-70
2023/02/15 09:57:13;;;;;;;14.27;6.23;;;11.40;99.90;;;;;;4957472;28;20208;-71
2023/02/15 09:59:52;;;;;;;15.53;6.23;;;11.50;99.90;;;;;;4957669;28;20218;-69
2023/02/15 10:02:32;;;;;;;12.70;6.10;;;11.60;99.90;;;;;;4957289;28;20681;-70
2023/02/15 10:05:12;;;;;;;17.77;6.10;;;11.60;99.90;;;;;;4956876;28;20224;-70
2023/02/15 10:08:05;;;;;;;17.10;7.20;;;11.70;99.90;;;;;;4957217;28;20219;-69
2023/02/15 10:10:41;;;;;;;14.70;6.00;;;11.70;99.90;;;;;;4957393;28;20251;-70
2023/02/15 10:13:22;;;;;;;16.97;6.80;;;11.60;99.90;;;;;;4956950;28;20566;-75
2023/02/15 10:16:04;;;;;;;13.17;5.53;;;11.60;99.90;;;;;;4956960;28;20214;-73
2023/02/15 10:18:55;;;;;;;18.53;6.97;;;11.80;99.90;;;;;;4956744;28;20220;-75
2023/02/15 10:21:40;;;;;;;18.37;7.27;;;11.60;99.90;;;;;;4956734;28;20204;-75
2023/02/15 10:24:30;;;;;;;14.10;6.30;;;11.50;99.90;;;;;;4956850;28;20235;-75
2023/02/15 10:27:01;;;;;;;17.23;6.90;;;11.40;99.90;;;;;;4957400;28;20216;-75
2023/02/15 10:29:36;;;;;;;15.23;6.33;;;11.20;99.90;;;;;;4956883;28;20619;-69
2023/02/15 10:32:14;;;;;;;15.93;6.87;;;11.20;99.90;;;;;;4956638;28;20235;-70
2023/02/15 10:34:49;;;;;;;18.90;7.13;;;11.30;99.90;;;;;;4956573;28;20227;-74
2023/02/15 10:37:33;;;;;;;17.40;7.07;;;11.30;99.90;;;;;;4956755;28;20235;-74
2023/02/15 10:40:08;;;;;;;17.40;6.53;;;11.30;99.90;;;;;;4957012;28;20203;-74
2023/02/15 10:42:53;;;;;;;17.57;6.63;;;11.40;99.90;;;;;;4956987;28;20207;-74
2023/02/15 10:45:30;;;;;;;15.37;5.93;;;11.50;99.90;;;;;;4956497;28;20223;-73
2023/02/15 10:48:12;;;;;;;15.23;6.87;;;11.70;99.90;;;;;;4956468;28;20219;-75
2023/02/15 10:50:49;;;;;;;17.50;7.10;;;11.50;99.90;;;;;;4956635;28;20236;-74
2023/02/15 10:53:36;;;;;;;21.27;7.53;;;11.40;99.90;;;;;;4956393;28;20302;-73
2023/02/15 10:56:19;;;;;;;17.20;6.60;;;11.30;99.90;;;;;;4956383;28;20582;-74
2023/02/15 10:58:59;;;;;;;17.03;7.50;;;11.40;99.90;;;;;;4956514;28;20208;-73
2023/02/15 11:01:33;;;;;;;17.00;6.17;;;11.60;99.90;;;;;;4956319;28;20212;-74
2023/02/15 11:04:19;;;;;;;17.50;6.93;;;11.60;99.90;;;;;;4956185;28;20257;-73
2023/02/15 11:06:52;;;;;;;15.07;6.40;;;11.60;99.90;;;;;;4955612;28;20207;-73
2023/02/15 11:09:21;;;;;;;15.00;5.97;;;11.70;99.90;;;;;;4955970;28;20606;-74
2023/02/15 11:11:51;;;;;;;16.30;6.50;;;11.80;99.90;;;;;;4955947;28;20236;-74
2023/02/15 11:14:25;;;;;;;19.50;6.63;;;12.00;99.90;;;;;;4955900;28;20234;-73
2023/02/15 11:17:00;;;;;;;16.23;6.67;;;12.10;99.90;;;;;;4956304;28;20208;-74
2023/02/15 11:19:32;;;;;;;19.10;6.10;;;12.30;99.90;;;;;;4955741;28;20222;-74
2023/02/15 11:22:03;;;;;;;18.77;7.43;;;12.40;99.90;;;;;;4955967;28;20223;-74
2023/02/15 11:24:34;;;;;;;17.47;6.50;;;12.40;99.90;;;;;;4955802;28;20263;-74
2023/02/15 11:27:05;;;;;;;20.23;6.87;;;12.50;99.90;;;;;;4955879;28;20219;-73
2023/02/15 11:29:37;;;;;;;19.97;7.13;;;12.50;99.90;;;;;;4955819;28;20215;-73
2023/02/15 11:32:19;;;;;;;17.97;7.07;;;12.40;99.90;;;;;;4955679;28;20232;-74
2023/02/15 11:34:52;;;;;;;16.33;6.00;;;12.50;99.90;;;;;;4955324;28;20236;-73
2023/02/15 11:37:21;;;;;;;14.97;6.80;;;12.80;99.90;;;;;;4956036;28;20212;-74
2023/02/15 11:39:54;;;;;;;20.17;6.40;;;12.80;99.90;;;;;;4955703;28;20207;-74
2023/02/15 11:42:24;;;;;;;16.70;7.17;;;12.80;99.90;;;;;;4955840;28;20226;-74
2023/02/15 11:44:59;;;;;;;18.70;6.77;;;12.90;99.90;;;;;;4955599;28;20235;-73
2023/02/15 11:47:28;;;;;;;17.87;7.30;;;12.90;99.90;;;;;;4955468;28;20678;-74
2023/02/15 11:49:55;;;;;;;17.03;6.50;;;13.10;99.90;;;;;;4955238;28;20259;-74
2023/02/15 11:52:21;;;;;;;15.20;7.00;;;13.00;99.90;;;;;;4955244;28;20688;-75
2023/02/15 11:54:51;;;;;;;16.17;6.63;;;13.00;99.90;;;;;;4955537;28;20238;-73
2023/02/15 11:57:24;;;;;;;17.53;7.07;;;13.20;99.90;;;;;;4955339;28;20211;-69
2023/02/15 11:59:57;;;;;;;15.37;6.73;;;13.40;99.90;;;;;;4955161;28;20216;-69
2023/02/15 12:02:26;;;;;;;17.90;6.67;;;13.60;99.90;;;;;;4954941;28;20337;-72
2023/02/15 12:04:57;;;;;;;17.80;7.20;;;13.80;99.90;;;;;;4954945;28;20563;-69
2023/02/15 12:07:28;;;;;;;18.70;7.40;;;13.80;99.90;;;;;;4954983;28;20242;-69
2023/02/15 12:10:04;;;;;;;20.03;7.27;;;13.80;99.90;;;;;;4954975;28;20215;-70
2023/02/15 12:12:32;;;;;;;17.20;6.70;;;13.90;99.90;;;;;;4955052;28;20345;-67
2023/02/15 12:15:00;;;;;;;17.50;8.30;;;13.80;99.90;;;;;;4954940;28;20259;-68
2023/02/15 12:17:30;;;;;;;20.73;7.77;;;13.60;99.90;;;;;;4955269;28;20204;-73
2023/02/15 12:20:01;;;;;;;20.27;7.03;;;13.50;99.90;;;;;;4955202;28;20208;-68
2023/02/15 12:22:30;;;;;;;16.47;7.87;;;13.60;99.90;;;;;;4954966;28;20208;-68
2023/02/15 12:25:00;;;;;;;15.80;7.63;;;13.70;99.90;;;;;;4954934;28;20231;-67
2023/02/15 12:27:29;;;;;;;19.77;6.80;;;13.70;99.90;;;;;;4955138;28;20630;-68
2023/02/15 12:30:00;;;;;;;15.13;7.63;;;13.50;99.90;;;;;;4954780;28;20594;-70
2023/02/15 12:32:31;;;;;;;19.37;8.23;;;13.30;99.90;;;;;;4955111;28;20236;-73
2023/02/15 12:35:08;;;;;;;20.63;7.53;;;13.40;99.90;;;;;;4954785;28;20231;-69
2023/02/15 12:37:35;;;;;;;19.97;7.63;;;13.40;99.90;;;;;;4954887;28;20211;-68
2023/02/15 12:40:20;;;;;;;21.90;8.37;;;13.50;99.90;;;;;;4954776;28;20306;-67
2023/02/15 12:42:47;;;;;;;16.13;6.80;;;13.60;99.90;;;;;;4946830;28;20208;-68
2023/02/15 12:45:26;;;;;;;16.97;7.23;;;13.90;99.90;;;;;;4941814;28;20235;-68
2023/02/15 12:48:16;;;;;;;16.27;7.30;;;14.00;99.90;;;;;;4936233;28;20235;-68
2023/02/15 12:50:45;;;;;;;16.50;7.77;;;14.10;99.90;;;;;;4945294;28;20262;-70
2023/02/15 12:53:18;;;;;;;21.80;8.63;;;14.20;99.90;;;;;;4950613;28;20248;-67
2023/02/15 12:55:54;;;;;;;18.93;8.13;;;14.20;99.90;;;;;;4944935;29;20204;-67
2023/02/15 12:58:24;;;;;;;15.93;7.23;;;14.10;99.90;;;;;;4952086;28;20547;-69
2023/02/15 13:01:04;;;;;;;21.03;7.60;;;14.00;99.90;;;;;;4950243;29;20216;-66
2023/02/15 13:03:31;;;;;;;18.70;7.90;;;13.90;99.90;;;;;;4952102;28;20227;-69
2023/02/15 13:06:01;;;;;;;18.13;7.60;;;13.80;99.90;;;;;;4946678;28;20208;-69
2023/02/15 13:08:31;;;;;;;19.97;7.77;;;13.80;99.90;;;;;;4951371;28;20287;-67
2023/02/15 13:11:00;;;;;;;17.90;7.53;;;13.80;99.90;;;;;;4953435;28;20263;-71
2023/02/15 13:13:29;;;;;;;19.13;7.33;;;13.70;99.90;;;;;;4946221;28;20232;-67
2023/02/15 13:15:59;;;;;;;16.10;7.17;;;13.70;99.90;;;;;;4947875;28;20208;-69
2023/02/15 13:18:32;;;;;;;17.30;7.20;;;13.60;99.90;;;;;;4941197;28;20237;-69
2023/02/15 13:21:10;;;;;;;19.00;7.80;;;13.60;99.90;;;;;;4952811;28;20683;-67
2023/02/15 13:23:38;;;;;;;17.50;7.43;;;13.60;99.90;;;;;;4939204;28;20754;-67
2023/02/15 13:26:11;;;;;;;20.43;7.37;;;13.50;99.90;;;;;;4954119;28;20216;-68
2023/02/15 13:28:43;;;;;;;18.37;7.23;;;13.50;99.90;;;;;;4944347;28;20208;-69
2023/02/15 13:31:15;;;;;;;17.67;8.10;;;13.50;99.90;;;;;;4955476;28;20233;-67
2023/02/15 13:33:46;;;;;;;19.77;7.97;;;13.50;99.90;;;;;;4944814;28;20235;-67
2023/02/15 13:36:24;;;;;;;19.20;8.00;;;13.50;99.90;;;;;;4951505;28;20216;-68
2023/02/15 13:39:01;;;;;;;17.50;7.73;;;13.70;99.90;;;;;;4946046;29;20267;-67
2023/02/15 13:41:33;;;;;;;19.40;7.87;;;13.70;99.90;;;;;;4951620;28;20544;-67
2023/02/15 13:44:13;;;;;;;18.20;7.87;;;13.70;99.90;;;;;;4953013;28;20706;-71
2023/02/15 13:46:52;;;;;;;15.67;7.80;;;13.90;99.90;;;;;;4951606;28;20758;-67
2023/02/15 13:49:30;;;;;;;18.67;7.93;;;13.90;99.90;;;;;;4950381;29;20208;-68
2023/02/15 13:52:05;;;;;;;18.27;7.87;;;13.90;99.90;;;;;;4947325;29;20236;-68
2023/02/15 13:55:07;;;;;;;20.17;8.60;;;13.90;99.90;;;;;;4950198;28;20223;-68
2023/02/15 13:57:56;;;;;;;16.70;8.00;;;13.90;99.90;;;;;;4922828;29;20220;-67
2023/02/15 14:00:26;;;;;;;19.83;8.60;;;13.80;99.90;;;;;;4948880;28;20209;-68
2023/02/15 14:03:19;;;;;;;19.30;8.13;;;13.90;99.90;;;;;;4954664;29;20215;-70
2023/02/15 14:06:08;;;;;;;17.63;7.70;;;13.90;99.90;;;;;;4953128;28;20205;-68
2023/02/15 14:08:51;;;;;;;19.63;8.30;;;14.00;99.90;;;;;;4949510;28;20670;-67
2023/02/15 14:11:27;;;;;;;22.47;9.17;;;13.80;99.90;;;;;;4953204;29;20240;-67
2023/02/15 14:14:21;;;;;;;23.27;8.13;;;13.80;99.90;;;;;;4950917;28;20292;-66
2023/02/15 14:16:59;;;;;;;20.60;8.83;;;13.90;99.90;;;;;;4952035;28;20208;-68
2023/02/15 14:19:31;;;;;;;20.17;9.10;;;13.90;99.90;;;;;;4951306;28;20655;-67
2023/02/15 14:22:05;;;;;;;22.83;8.70;;;13.90;99.90;;;;;;4951740;28;20212;-68
2023/02/15 14:24:38;;;;;;;24.80;9.20;;;13.80;99.90;;;;;;4951553;28;20232;-68
2023/02/15 14:27:15;;;;;;;18.23;8.43;;;13.70;99.90;;;;;;4954156;28;20217;-67
2023/02/15 14:29:51;;;;;;;19.43;9.00;;;13.70;99.90;;;;;;4949236;28;20212;-69
2023/02/15 14:32:26;;;;;;;21.43;9.00;;;13.80;99.90;;;;;;4939425;29;20237;-67
2023/02/15 14:34:55;;;;;;;22.23;9.17;;;13.80;99.90;;;;;;4944905;28;20275;-67
2023/02/15 14:37:34;;;;;;;20.67;8.90;;;13.70;99.90;;;;;;4950428;28;20667;-67
2023/02/15 14:42:57;;;;;;;23.73;9.20;;;13.50;99.90;;;;;;4944960;28;20319;-72
2023/02/15 14:45:30;;;;;;;24.40;8.70;;;13.50;99.90;;;;;;4939792;28;20233;-72
2023/02/15 14:48:06;;;;;;;19.30;8.43;;;13.50;99.90;;;;;;4944935;28;20222;-70
2023/02/15 14:50:44;;;;;;;21.00;9.03;;;13.50;99.90;;;;;;4950918;28;20204;-70
2023/02/15 14:53:35;;;;;;;21.53;8.60;;;13.70;99.90;;;;;;4956007;28;20263;-73
2023/02/15 14:56:22;;;;;;;20.73;8.43;;;13.50;99.90;;;;;;4954505;28;20603;-72
2023/02/15 14:59:23;;;;;;;21.63;8.23;;;13.40;99.90;;;;;;4954983;28;20294;-68
2023/02/15 15:01:58;;;;;;;20.03;8.27;;;13.50;99.90;;;;;;4956447;28;20215;-73
2023/02/15 15:04:30;;;;;;;20.23;8.53;;;13.50;99.90;;;;;;4956091;28;20235;-71
2023/02/15 15:07:10;;;;;;;21.97;8.23;;;13.50;99.90;;;;;;4956634;28;20208;-74
2023/02/15 15:09:39;;;;;;;18.93;8.57;;;13.30;99.90;;;;;;4956051;28;20214;-73
2023/02/15 15:12:40;;;;;;;22.40;8.63;;;13.30;99.90;;;;;;4956234;28;20242;-70
2023/02/15 15:15:11;;;;;;;23.00;8.73;;;13.20;99.90;;;;;;4956439;28;20228;-73
2023/02/15 15:17:58;;;;;;;25.20;9.03;;;13.10;99.90;;;;;;4956348;28;20208;-73
2023/02/15 15:20:41;;;;;;;21.03;9.50;;;13.10;99.90;;;;;;4956043;28;20211;-74
2023/02/15 15:23:40;;;;;;;20.57;8.93;;;13.10;99.90;;;;;;4955989;28;20207;-73
2023/02/15 15:26:26;;;;;;;20.83;9.20;;;13.10;99.90;;;;;;4944265;28;20212;-74
2023/02/15 15:29:00;;;;;;;19.87;8.90;;;12.90;99.90;;;;;;4956147;28;20271;-74
2023/02/15 15:31:38;;;;;;;22.67;8.97;;;12.80;99.90;;;;;;4955912;28;20666;-73
2023/02/15 15:34:35;;;;;;;22.00;8.97;;;12.80;99.90;;;;;;4955651;28;20238;-74
2023/02/15 15:37:32;;;;;;;23.40;10.00;;;12.90;99.90;;;;;;4955532;28;20218;-74
2023/02/15 15:40:39;;;;;;;22.50;9.33;;;12.80;99.90;;;;;;4955742;28;20232;-76
2023/02/15 15:43:33;;;;;;;19.73;9.03;;;12.80;99.90;;;;;;4955016;28;20292;-75
2023/02/15 15:46:24;;;;;;;18.93;9.43;;;12.80;99.90;;;;;;4955649;28;20204;-74
2023/02/15 15:48:52;;;;;;;21.50;9.03;;;12.70;99.90;;;;;;4955075;28;20746;-72
2023/02/15 15:51:20;;;;;;;20.60;9.10;;;12.70;99.90;;;;;;4955652;28;20208;-74
2023/02/15 15:53:52;;;;;;;25.80;10.30;;;12.60;99.90;;;;;;4955003;28;20243;-73
2023/02/15 15:56:22;;;;;;;22.03;9.77;;;12.50;99.90;;;;;;4955582;28;20278;-74
2023/02/15 15:58:53;;;;;;;22.03;9.67;;;12.40;99.90;;;;;;4955665;28;20212;-68
2023/02/15 16:01:28;;;;;;;25.80;9.83;;;12.50;99.90;;;;;;4955059;28;20671;-71
2023/02/15 16:03:57;;;;;;;23.10;9.60;;;12.30;99.90;;;;;;4955115;28;20231;-69
2023/02/15 16:06:32;;;;;;;22.57;8.97;;;12.20;99.90;;;;;;4956944;28;20212;-73
2023/02/15 16:09:11;;;;;;;22.30;9.87;;;12.10;99.90;;;;;;4955594;28;20211;-74
2023/02/15 16:11:39;;;;;;;23.23;10.67;;;12.10;99.90;;;;;;4955145;28;20682;-69
2023/02/15 16:14:13;;;;;;;26.70;10.83;;;12.10;99.90;;;;;;4955163;28;20258;-73
2023/02/15 16:16:41;;;;;;;22.17;10.40;;;12.00;99.90;;;;;;4955548;28;20216;-73
2023/02/15 16:19:19;;;;;;;25.13;10.03;;;11.90;99.90;;;;;;4954874;28;20212;-71
2023/02/15 16:21:49;;;;;;;26.23;10.80;;;11.90;99.90;;;;;;4955055;28;20218;-68
2023/02/15 16:24:25;;;;;;;22.47;9.90;;;11.80;99.90;;;;;;4955179;28;20228;-69
2023/02/15 16:27:21;;;;;;;22.60;10.23;;;11.70;99.90;;;;;;4954984;28;20214;-73
2023/02/15 16:29:48;;;;;;;24.40;10.37;;;11.50;99.90;;;;;;4955096;28;20303;-74
2023/02/15 16:32:23;;;;;;;24.30;10.37;;;11.40;99.90;;;;;;4954894;28;20587;-73
2023/02/15 16:34:54;;;;;;;23.57;9.97;;;11.40;99.90;;;;;;4954797;28;20229;-74
2023/02/15 16:37:25;;;;;;;23.60;9.87;;;11.30;99.90;;;;;;4955075;28;20204;-73
2023/02/15 16:39:52;;;;;;;23.50;10.33;;;11.20;99.90;;;;;;4955199;28;20212;-74
2023/02/15 16:42:19;;;;;;;23.43;10.10;;;11.30;99.90;;;;;;4954340;28;20548;-72
2023/02/15 16:44:49;;;;;;;19.93;9.03;;;11.20;99.90;;;;;;4936803;29;20743;-73
2023/02/15 16:47:20;;;;;;;20.57;10.17;;;11.20;99.90;;;;;;4943209;28;20213;-73
2023/02/15 16:49:51;;;;;;;24.40;10.43;;;11.20;99.90;;;;;;4951070;29;20575;-73
2023/02/15 16:52:22;;;;;;;23.97;10.90;;;11.20;99.90;;;;;;4946165;28;20233;-72
2023/02/15 16:54:54;;;;;;;21.97;9.97;;;11.20;99.90;;;;;;4943684;28;20235;-73
2023/02/15 16:57:24;;;;;;;25.23;10.33;;;11.20;99.90;;;;;;4938015;28;20575;-70
2023/02/15 16:59:54;;;;;;;24.60;10.30;;;11.10;99.90;;;;;;4942309;28;20215;-73
2023/02/15 17:02:25;;;;;;;25.00;10.20;;;11.00;99.90;;;;;;4939697;28;20212;-73
2023/02/15 17:05:15;;;;;;;22.33;9.90;;;10.90;99.90;;;;;;4950372;28;20228;-74
2023/02/15 17:07:49;;;;;;;20.63;9.53;;;10.80;99.90;;;;;;4951553;28;20204;-70
2023/02/15 17:10:31;;;;;;;24.93;10.50;;;10.60;99.90;;;;;;4942322;28;20588;-72
2023/02/15 17:13:03;;;;;;;22.47;10.53;;;10.60;99.90;;;;;;4948973;28;20243;-72
2023/02/15 17:15:33;;;;;;;24.33;11.23;;;10.50;99.90;;;;;;4950780;28;20569;-72
2023/02/15 17:18:03;;;;;;;28.87;11.70;;;10.40;99.90;;;;;;4946207;28;20208;-73
2023/02/15 17:20:32;;;;;;;25.00;10.43;;;10.40;99.90;;;;;;4951571;29;20208;-73
2023/02/15 17:23:00;;;;;;;27.33;11.53;;;10.30;99.90;;;;;;4949836;29;20212;-73
2023/02/15 17:25:36;;;;;;;23.83;12.53;;;10.10;99.90;;;;;;4952749;28;20564;-73
2023/02/15 17:28:03;;;;;;;28.30;11.30;;;10.00;99.90;;;;;;4954729;28;20207;-72
2023/02/15 17:30:32;;;;;;;30.37;12.37;;;10.00;99.90;;;;;;4950751;28;20714;-72
2023/02/15 17:33:01;;;;;;;27.40;11.47;;;10.00;99.90;;;;;;4952569;28;20259;-73
2023/02/15 17:35:29;;;;;;;28.97;11.73;;;10.00;99.90;;;;;;4945166;28;20798;-69
2023/02/15 17:38:06;;;;;;;29.00;12.47;;;10.00;99.90;;;;;;4956741;29;20208;-70
2023/02/15 17:40:35;;;;;;;26.20;12.27;;;9.90;99.90;;;;;;4942993;28;20211;-73
2023/02/15 17:43:02;;;;;;;30.47;12.33;;;9.90;99.90;;;;;;4955424;28;20215;-73
2023/02/15 17:45:33;;;;;;;25.00;11.37;;;9.90;99.90;;;;;;4947483;28;20588;-74
2023/02/15 17:48:04;;;;;;;26.80;12.00;;;9.90;99.90;;;;;;4952187;28;20212;-74
2023/02/15 17:50:31;;;;;;;28.00;11.43;;;9.90;99.90;;;;;;4941321;28;20671;-73
2023/02/15 17:53:00;;;;;;;23.43;11.53;;;9.90;99.90;;;;;;4939963;28;20591;-72
2023/02/15 17:55:34;;;;;;;25.97;11.20;;;9.80;99.90;;;;;;4941193;28;20702;-73
2023/02/15 17:58:01;;;;;;;28.03;11.77;;;9.90;99.90;;;;;;4956718;29;20690;-71
2023/02/15 18:11:38;;;;;;;25.87;10.93;;;9.90;99.90;;;;;;4956812;29;20618;-72
2023/02/15 18:14:06;;;;;;;26.47;11.67;;;9.90;99.90;;;;;;4956873;28;20690;-74
2023/02/15 18:16:36;;;;;;;22.90;10.03;;;9.90;99.90;;;;;;4956494;28;20671;-74
2023/02/15 18:19:05;;;;;;;25.20;10.73;;;9.90;99.90;;;;;;4957253;28;20218;-73
2023/02/15 18:21:32;;;;;;;24.93;11.10;;;9.80;99.90;;;;;;4957269;28;20230;-73
2023/02/15 18:23:59;;;;;;;27.97;11.33;;;9.70;99.90;;;;;;4957500;28;20703;-74
2023/02/15 18:26:27;;;;;;;31.53;11.43;;;9.80;99.90;;;;;;4956912;28;20211;-73
2023/02/15 18:28:55;;;;;;;24.83;10.33;;;9.80;99.90;;;;;;4956900;28;20686;-73
2023/02/15 18:31:23;;;;;;;24.87;11.03;;;9.90;99.90;;;;;;4956780;28;20215;-72
2023/02/15 18:33:53;;;;;;;28.93;11.23;;;9.80;99.90;;;;;;4956357;28;20235;-69
2023/02/15 18:36:23;;;;;;;24.53;11.17;;;9.80;99.90;;;;;;4956935;28;20208;-74
2023/02/15 18:38:52;;;;;;;28.60;11.77;;;9.80;99.90;;;;;;4956904;28;20214;-74
2023/02/15 18:41:20;;;;;;;24.90;10.73;;;9.70;99.90;;;;;;4956523;28;20215;-74
2023/02/15 18:43:48;;;;;;;23.07;10.30;;;9.70;99.90;;;;;;4956474;28;20291;-74
2023/02/15 18:46:17;;;;;;;26.27;12.07;;;9.70;99.90;;;;;;4956418;28;20611;-74
2023/02/15 18:48:45;;;;;;;25.10;10.83;;;9.70;99.90;;;;;;4956356;28;20208;-73
2023/02/15 18:51:18;;;;;;;26.13;12.20;;;9.60;99.90;;;;;;4956765;28;20212;-73
2023/02/15 18:53:46;;;;;;;24.47;11.33;;;9.60;99.90;;;;;;4956532;28;20291;-73
2023/02/15 18:56:17;;;;;;;24.13;12.20;;;9.50;99.90;;;;;;4956517;28;20567;-74
2023/02/15 18:58:46;;;;;;;36.13;12.23;;;9.50;99.90;;;;;;4956345;28;20211;-73
2023/02/15 19:01:15;;;;;;;27.83;12.07;;;9.40;99.90;;;;;;4956431;28;20212;-75
2023/02/15 19:03:46;;;;;;;27.33;13.00;;;9.40;99.90;;;;;;4956427;28;20292;-69
2023/02/15 19:06:15;;;;;;;27.50;12.10;;;9.40;99.90;;;;;;4956343;28;20659;-73
2023/02/15 19:08:44;;;;;;;25.70;10.97;;;9.40;99.90;;;;;;4956293;28;20219;-72
2023/02/15 19:11:17;;;;;;;26.30;11.03;;;9.50;99.90;;;;;;4956139;28;20667;-74
2023/02/15 19:13:44;;;;;;;22.67;10.43;;;9.40;99.90;;;;;;4955911;28;20243;-73
2023/02/15 19:16:25;;;;;;;26.70;11.10;;;9.40;99.90;;;;;;4956219;28;20667;-73
2023/02/15 19:18:54;;;;;;;28.37;11.70;;;9.30;99.90;;;;;;4955901;28;20647;-70
2023/02/15 19:21:21;;;;;;;27.83;11.93;;;9.30;99.90;;;;;;4956058;28;20203;-73
2023/02/15 19:23:59;;;;;;;22.73;10.67;;;9.40;99.90;;;;;;4956127;28;20228;-74
2023/02/15 19:26:30;;;;;;;23.13;10.63;;;9.30;99.90;;;;;;4956413;28;20211;-74
2023/02/15 19:28:57;;;;;;;25.70;10.97;;;9.30;99.90;;;;;;4955453;28;20259;-73
2023/02/15 19:31:24;;;;;;;25.57;11.37;;;9.30;99.90;;;;;;4955896;28;20545;-72
2023/02/15 19:33:52;;;;;;;26.07;11.03;;;9.30;99.90;;;;;;4955822;28;20235;-72
2023/02/15 19:36:21;;;;;;;22.67;10.13;;;9.20;99.90;;;;;;4955974;28;20216;-69
2023/02/15 19:38:50;;;;;;;28.47;11.43;;;9.10;99.90;;;;;;4955887;28;20689;-70
2023/02/15 19:41:20;;;;;;;24.83;10.23;;;9.00;99.90;;;;;;4953233;28;20208;-68
2023/02/15 19:43:53;;;;;;;21.50;10.43;;;9.00;99.90;;;;;;4953853;28;20228;-68
2023/02/15 19:46:21;;;;;;;22.97;9.40;;;9.10;99.90;;;;;;4954383;28;20239;-70
2023/02/15 19:48:48;;;;;;;26.23;10.73;;;9.10;99.90;;;;;;4952578;28;20290;-68
2023/02/15 19:51:16;;;;;;;21.90;10.33;;;9.10;99.90;;;;;;4954489;28;20659;-68
2023/02/15 19:53:45;;;;;;;23.50;9.93;;;9.00;99.90;;;;;;4954783;28;20326;-69
2023/02/15 19:56:13;;;;;;;20.40;10.13;;;9.00;99.90;;;;;;4955243;28;20204;-68
2023/02/15 19:58:39;;;;;;;25.33;11.00;;;8.90;99.90;;;;;;4955356;28;20216;-70
2023/02/15 20:01:06;;;;;;;22.03;9.10;;;8.90;99.90;;;;;;4955208;28;20214;-70
2023/02/15 20:03:33;;;;;;;21.30;9.87;;;8.80;99.90;;;;;;4955034;28;20236;-71
2023/02/15 20:06:00;;;;;;;28.57;11.50;;;8.80;99.90;;;;;;4954853;28;20214;-74
2023/02/15 20:08:30;;;;;;;20.93;9.70;;;8.70;99.90;;;;;;4955086;28;20218;-71
2023/02/15 20:10:57;;;;;;;23.67;10.90;;;8.50;99.90;;;;;;4955038;29;20211;-72
2023/02/15 20:13:24;;;;;;;29.20;11.03;;;8.50;99.90;;;;;;4954476;28;20232;-72
2023/02/15 20:15:52;;;;;;;26.50;10.53;;;8.50;99.90;;;;;;4953620;29;20208;-73
2023/02/15 20:18:19;;;;;;;21.87;10.70;;;8.50;99.90;;;;;;4953246;29;20211;-68
2023/02/15 20:20:47;;;;;;;25.97;10.47;;;8.50;99.90;;;;;;4954812;28;20302;-72
2023/02/15 20:23:19;;;;;;;28.17;12.03;;;8.50;99.90;;;;;;4954423;28;20212;-70
2023/02/15 20:25:47;;;;;;;28.10;12.00;;;8.50;99.90;;;;;;4954424;28;20204;-71
2023/02/15 20:28:17;;;;;;;23.33;10.77;;;8.50;99.90;;;;;;4954758;28;20208;-72
2023/02/15 20:30:44;;;;;;;24.03;10.40;;;8.40;99.90;;;;;;4954600;28;20215;-71
2023/02/15 20:33:12;;;;;;;23.63;11.20;;;8.50;99.90;;;;;;4954417;28;20228;-71
2023/02/15 20:35:39;;;;;;;21.90;10.13;;;8.50;99.90;;;;;;4954550;28;20204;-72
2023/02/15 20:38:07;;;;;;;24.17;10.10;;;8.40;99.90;;;;;;4955178;28;20216;-73
2023/02/15 20:40:35;;;;;;;25.43;11.27;;;8.30;99.90;;;;;;4961409;28;20250;-73
2023/02/15 20:43:03;;;;;;;27.27;10.23;;;8.30;99.90;;;;;;4960936;28;20214;-73
2023/02/15 20:45:32;;;;;;;23.10;10.23;;;8.30;99.90;;;;;;4960723;28;20228;-71
2023/02/15 20:48:00;;;;;;;22.83;10.17;;;8.20;99.90;;;;;;4961146;28;20212;-70
2023/02/15 20:50:29;;;;;;;23.67;11.30;;;8.20;99.90;;;;;;4961126;28;20216;-68
2023/02/15 20:52:58;;;;;;;23.90;9.97;;;8.20;99.90;;;;;;4961403;28;20683;-69
2023/02/15 20:55:29;;;;;;;20.63;10.13;;;8.20;99.90;;;;;;4963001;28;20231;-68
2023/02/15 20:57:56;;;;;;;24.63;10.67;;;8.20;99.90;;;;;;4963775;28;20218;-71
2023/02/15 21:00:27;;;;;;;20.53;9.57;;;8.20;99.90;;;;;;4962770;28;20207;-71
2023/02/15 21:02:56;;;;;;;23.73;10.50;;;8.20;99.90;;;;;;4963369;28;20661;-68
2023/02/15 21:05:25;;;;;;;22.80;10.67;;;8.20;99.90;;;;;;4962356;28;20238;-69
2023/02/15 21:07:54;;;;;;;27.27;12.17;;;8.20;99.90;;;;;;4962426;28;20667;-68
2023/02/15 21:10:23;;;;;;;25.00;10.63;;;8.20;99.90;;;;;;4962963;28;20267;-68
2023/02/15 21:12:50;;;;;;;29.17;11.30;;;8.10;99.90;;;;;;4961932;28;20204;-73
2023/02/15 21:15:31;;;;;;;22.70;10.97;;;8.10;99.90;;;;;;4960716;28;20595;-71
2023/02/15 21:18:00;;;;;;;24.60;10.63;;;8.10;99.90;;;;;;4960609;28;20212;-69
2023/02/15 21:20:28;;;;;;;24.73;10.57;;;8.00;99.90;;;;;;4960869;28;20208;-70
2023/02/15 21:22:56;;;;;;;23.70;10.30;;;8.00;99.90;;;;;;4962545;28;20208;-68
2023/02/15 21:25:27;;;;;;;21.77;10.60;;;8.00;99.90;;;;;;4961013;28;20232;-68
2023/02/15 21:27:54;;;;;;;22.97;10.20;;;8.00;99.90;;;;;;4960382;28;20211;-67
2023/02/15 21:30:23;;;;;;;26.17;10.73;;;7.90;99.90;;;;;;4960740;28;20218;-69
2023/02/15 21:32:51;;;;;;;26.60;11.60;;;7.90;99.90;;;;;;4960520;28;20651;-67
2023/02/15 21:35:19;;;;;;;22.20;10.97;;;7.90;99.90;;;;;;4960664;28;20266;-68
2023/02/15 21:37:48;;;;;;;26.00;11.27;;;7.90;99.90;;;;;;4960916;28;20219;-67
2023/02/15 21:40:20;;;;;;;23.53;10.70;;;7.90;99.90;;;;;;4960801;28;20300;-67
2023/02/15 21:48:17;;;;;;;24.93;11.23;;;7.80;99.90;;;;;;4960541;29;20219;-67
2023/02/15 21:53:31;;;;;;;28.43;11.27;;;7.70;99.90;;;;;;4957623;29;20214;-67
2023/02/15 21:56:00;;;;;;;24.50;10.40;;;7.60;99.90;;;;;;4957582;28;20208;-67
2023/02/15 21:58:28;;;;;;;29.33;11.53;;;7.60;99.90;;;;;;4957880;28;20215;-68
2023/02/15 22:00:56;;;;;;;28.87;10.97;;;7.70;99.90;;;;;;4957556;28;20215;-68
2023/02/15 22:03:26;;;;;;;29.07;11.80;;;7.70;99.90;;;;;;4957032;28;20702;-67
2023/02/15 22:05:53;;;;;;;23.63;11.03;;;7.80;99.90;;;;;;4957280;28;20208;-67
2023/02/15 22:08:20;;;;;;;25.50;11.50;;;7.80;99.90;;;;;;4957365;28;20208;-68
2023/02/15 22:10:48;;;;;;;26.17;11.03;;;7.70;99.90;;;;;;4957143;28;20212;-68
2023/02/15 22:13:18;;;;;;;24.70;11.50;;;7.70;99.90;;;;;;4956967;28;20689;-68
2023/02/15 22:15:46;;;;;;;25.67;11.13;;;7.70;99.90;;;;;;4957006;28;20239;-67